Details From CYYQ - CHURCHILL
To CYBQ - Tadoule Lake
Flight Number -
Tags generated
Created
Modified
Stats Distance 144 nm / 266 km
Max Altitude 10,800 ft / 3,292 m
Waypoints 4
Social Downloads 0
Likes 0
Share VATSIM

Download

Looking for another format? Having issues loading an existing format? Contact us
Advertisement - Login to hide

Notes

Basic altitude profile: - Ascent Rate: 2500ft/min - Ascent Speed: 250kts - Cruise Altitude: 35000ft - Cruise Speed: 420kts - Descent Rate: 1500ft/min - Descent Speed: 250kts Options: - Use NATs: yes - Use PACOTS: yes - Use low airways: yes - Use high airways: yes

Route

CYYQ YYQ 5900N09500W CYBQ

ID Type Via Altitude Latitude Longitude Leg Dist Tot Dist Heading (true) Name
O CYYQ APT - 0 ft / 0 m 58.74397˚ -94.06386˚ - 0 nm - CHURCHILL
YYQ VOR - 700 ft / 213 m 58.74175˚ -94.13531˚ 2 nm 2 nm 267° / 267° CHURCHILL VOR-DME
5900N09500W LATLON - 10,800 ft / 3,292 m 59.00000˚ -95.00000˚ 31 nm 33 nm 300° / 300° -
O CYBQ APT - 0 ft / 0 m 58.70627˚ -98.51285˚ 110 nm 143 nm 262° / 259° Tadoule Lake

Altitude Profile

Advertisement - Login to hide

CYYQ

Details ICAO CYYQ (YYQ)
Name CHURCHILL
Region Canada
Timezone America/Winnipeg (UTC-6.0)
Stats Elevation 94 ft / 29 m (AMSL)
Location 58.743971° -94.063864°
Runways 2
Magnetic Variation 2.069° W

METAR

CYYQ 181800Z 06013KT 2SM -SN DRSN OVC030 M12/M13 A2906 RMK SC8 VIS VRB 1-3 SLP847

Decode

TAF

TAF CYYQ 181738Z 1818/1918 07015KT 4SM -SN OVC040 TEMPO 1818/1822 2SM -SN OVC025 BECMG 1819/1821 04018KT FM182200 02018KT 2SM -SN BLSN OVC012 TEMPO 1822/1909 4SM -SN OVC025 PROB30 1822/1909 1SM -SN BLSN FM190900 01022G32KT 3/4SM -SN BLSN VV007 TEMPO 1909/1918 3SM -SN OVC010 RMK NXT FCST BY 190000Z

Decode

Departure Runways

ID Width Length Bearing (true) Bearing (mag) Surface Threshold Offset Overrun Length
07 100 ft / 30 m 3,988 ft / 1,215 m 70.97° 73.04° Gravel 0 ft / 0 m 0 ft / 0 m
15 160 ft / 49 m 9,178 ft / 2,797 m 152.64° 154.71° Asphalt 0 ft / 0 m 0 ft / 0 m
25 100 ft / 30 m 3,988 ft / 1,215 m 250.99° 253.06° Gravel 0 ft / 0 m 0 ft / 0 m
33 160 ft / 49 m 9,178 ft / 2,797 m 332.66° 334.73° Asphalt 0 ft / 0 m 0 ft / 0 m

CYBQ

Details ICAO CYBQ (XTL)
Name Tadoule Lake
Region Canada
Timezone America/Winnipeg (UTC-6.0)
Stats Elevation 902 ft / 275 m (AMSL)
Location 58.706269° -98.512850°
Runways 1
Magnetic Variation 2.988° E

METAR

CYBQ 181800Z AUTO 35005KT 1 1/4SM -SN OVC022 M15/M17 A2911 RMK SLP887

Decode

TAF

Not found

Destination Runways

ID Width Length Bearing (true) Bearing (mag) Surface Threshold Offset Overrun Length
07 164 ft / 50 m 3,971 ft / 1,210 m 72.58° 69.59° Dirt 0 ft / 0 m 0 ft / 0 m
25 164 ft / 50 m 3,971 ft / 1,210 m 252.60° 249.61° Dirt 0 ft / 0 m 0 ft / 0 m

Popular Alternatives